createdAt,value
2018-08-23T00:01:35.511Z,20.74
2018-08-23T00:04:08.556Z,20.70
2018-08-23T00:06:41.379Z,20.68
2018-08-23T00:09:11.377Z,20.68
2018-08-23T00:11:45.544Z,20.72
2018-08-23T00:14:16.363Z,20.73
2018-08-23T00:16:47.520Z,20.77
2018-08-23T00:19:17.931Z,20.79
2018-08-23T00:21:49.163Z,20.81
2018-08-23T00:24:21.017Z,20.81
2018-08-23T00:26:56.869Z,20.79
2018-08-23T00:29:29.003Z,20.78
2018-08-23T00:32:03.662Z,20.82
2018-08-23T00:34:35.959Z,20.86
2018-08-23T00:37:06.610Z,20.89
2018-08-23T00:39:37.196Z,20.89
2018-08-23T00:42:11.763Z,20.88
2018-08-23T00:44:56.828Z,20.85
2018-08-23T00:47:30.894Z,20.81
2018-08-23T00:50:00.983Z,20.74
2018-08-23T00:52:48.253Z,20.70
2018-08-23T00:55:25.100Z,20.69
2018-08-23T00:57:55.173Z,20.70
2018-08-23T01:00:26.226Z,20.68
2018-08-23T01:03:02.156Z,20.66
2018-08-23T01:05:39.158Z,20.66
2018-08-23T01:08:10.110Z,20.68
2018-08-23T01:10:41.247Z,20.65
2018-08-23T01:13:11.337Z,20.61
2018-08-23T01:15:43.603Z,20.56
2018-08-23T01:18:18.072Z,20.54
2018-08-23T01:20:49.409Z,20.51
2018-08-23T01:23:19.452Z,20.41
2018-08-23T01:25:50.131Z,20.36
2018-08-23T01:28:20.222Z,20.29
2018-08-23T01:30:50.608Z,20.26
2018-08-23T01:33:21.969Z,20.25
2018-08-23T01:35:53.029Z,20.25
2018-08-23T01:38:23.058Z,20.26
2018-08-23T01:40:59.172Z,20.26
2018-08-23T01:43:29.295Z,20.27
2018-08-23T01:45:59.304Z,20.26
2018-08-23T01:48:29.356Z,20.23
2018-08-23T01:50:59.430Z,20.20
2018-08-23T01:53:33.464Z,20.20
2018-08-23T01:56:03.435Z,20.18
2018-08-23T01:58:35.427Z,20.17
2018-08-23T02:01:14.385Z,20.19
2018-08-23T02:03:44.664Z,20.16
2018-08-23T02:06:14.951Z,20.15
2018-08-23T02:08:46.603Z,20.14
2018-08-23T02:11:16.672Z,20.11
2018-08-23T02:13:49.840Z,20.09
2018-08-23T02:16:19.976Z,20.07
2018-08-23T02:18:50.278Z,20.04
2018-08-23T02:21:20.396Z,20.03
2018-08-23T02:23:52.179Z,20.01
2018-08-23T02:26:22.116Z,19.96
2018-08-23T02:28:53.243Z,19.91
2018-08-23T02:31:23.324Z,19.86
2018-08-23T02:33:53.349Z,19.85
2018-08-23T02:36:24.729Z,19.86
2018-08-23T02:39:01.686Z,19.82
2018-08-23T02:41:32.202Z,19.81
2018-08-23T02:44:02.307Z,19.81
2018-08-23T02:46:33.888Z,19.81
2018-08-23T02:49:03.927Z,19.80
2018-08-23T02:51:52.171Z,19.79
2018-08-23T02:54:22.290Z,19.79
2018-08-23T02:56:59.403Z,19.80
2018-08-23T02:59:30.367Z,19.82
2018-08-23T03:02:00.362Z,19.83
2018-08-23T03:04:30.389Z,19.86
2018-08-23T03:07:06.636Z,19.89
2018-08-23T03:09:38.635Z,19.91
2018-08-23T03:12:10.219Z,19.91
2018-08-23T03:14:40.966Z,19.88
2018-08-23T03:17:27.268Z,19.85
2018-08-23T03:20:01.995Z,19.86
2018-08-23T03:22:33.219Z,19.86
2018-08-23T03:25:04.927Z,19.89
2018-08-23T03:27:34.993Z,19.92
2018-08-23T03:30:06.339Z,19.91
2018-08-23T03:32:36.340Z,19.92
2018-08-23T03:35:06.459Z,19.91
2018-08-23T03:37:36.424Z,19.90
2018-08-23T03:40:07.082Z,19.92
2018-08-23T03:42:36.980Z,19.91
2018-08-23T03:45:07.968Z,19.92
2018-08-23T03:47:43.355Z,19.91
2018-08-23T03:50:13.373Z,19.90
2018-08-23T03:52:47.535Z,19.88
2018-08-23T03:55:21.743Z,19.84
2018-08-23T03:57:56.694Z,19.84
2018-08-23T04:00:31.623Z,19.78
2018-08-23T04:03:03.578Z,19.74
2018-08-23T04:05:33.673Z,19.70
2018-08-23T04:08:03.729Z,19.67
2018-08-23T04:10:33.804Z,19.66
2018-08-23T04:13:03.809Z,19.68
2018-08-23T04:15:33.928Z,19.68
2018-08-23T04:18:07.195Z,19.70
2018-08-23T04:20:38.012Z,19.68
2018-08-23T04:23:08.698Z,19.69
2018-08-23T04:25:38.585Z,19.67
2018-08-23T04:28:08.573Z,19.60
2018-08-23T04:30:38.650Z,19.56
2018-08-23T04:33:08.667Z,19.52
2018-08-23T04:35:39.393Z,19.52
2018-08-23T04:38:09.379Z,19.52
2018-08-23T04:40:39.597Z,19.50
2018-08-23T04:43:09.617Z,19.48
2018-08-23T04:45:39.712Z,19.47
2018-08-23T04:48:09.898Z,19.48
2018-08-23T04:50:40.606Z,19.49
2018-08-23T04:53:10.672Z,19.49
2018-08-23T04:55:40.561Z,19.48
2018-08-23T04:58:10.672Z,19.51
2018-08-23T05:00:40.735Z,19.52
2018-08-23T05:03:10.832Z,19.55
2018-08-23T05:05:40.874Z,19.57
2018-08-23T05:08:11.040Z,19.61
2018-08-23T05:10:41.097Z,19.64
2018-08-23T05:13:11.217Z,19.65
2018-08-23T05:15:41.351Z,19.72
2018-08-23T05:18:10.983Z,19.79
2018-08-23T05:20:41.117Z,19.82
2018-08-23T05:23:11.199Z,19.85
2018-08-23T05:25:41.166Z,19.86
2018-08-23T05:41:12.704Z,19.90
2018-08-23T05:43:42.704Z,20.05
2018-08-23T05:46:12.803Z,20.12
2018-08-23T05:48:42.902Z,20.19
2018-08-23T05:51:14.260Z,20.22
2018-08-23T05:53:46.858Z,20.25
2018-08-23T05:56:17.334Z,20.30
2018-08-23T05:58:47.602Z,20.35
2018-08-23T06:01:17.626Z,20.40
2018-08-23T06:03:47.764Z,20.46
2018-08-23T06:06:17.859Z,20.53
2018-08-23T06:08:50.980Z,20.56
2018-08-23T06:11:21.043Z,20.61
2018-08-23T06:13:51.199Z,20.65
2018-08-23T06:16:22.038Z,20.70
2018-08-23T06:18:52.142Z,20.82
2018-08-23T06:21:22.361Z,20.93
2018-08-23T06:24:00.000Z,20.96
2018-08-23T06:26:43.915Z,21.01
2018-08-23T06:29:18.845Z,21.08
2018-08-23T06:31:58.620Z,21.11
2018-08-23T06:34:30.330Z,21.18
2018-08-23T06:37:00.495Z,21.28
2018-08-23T06:39:30.635Z,21.39
2018-08-23T06:42:01.765Z,21.46
2018-08-23T06:44:43.654Z,21.53
2018-08-23T06:47:16.288Z,21.60
2018-08-23T06:49:47.397Z,21.65
2018-08-23T06:52:23.814Z,21.72
2018-08-23T06:54:53.853Z,21.76
2018-08-23T06:57:23.899Z,21.83
2018-08-23T06:59:53.957Z,21.89
2018-08-23T07:02:24.057Z,21.96
2018-08-23T07:04:54.135Z,21.97
2018-08-23T07:07:24.175Z,21.96
2018-08-23T07:09:54.354Z,21.98
2018-08-23T07:12:24.336Z,22.01
2018-08-23T07:14:54.407Z,22.06
2018-08-23T07:17:28.081Z,22.09
2018-08-23T07:20:02.511Z,22.08
2018-08-23T07:22:34.862Z,22.06
2018-08-23T07:25:05.026Z,22.08
2018-08-23T07:27:35.129Z,22.12
2018-08-23T07:30:05.248Z,22.16
2018-08-23T07:32:39.144Z,22.21
2018-08-23T07:35:10.535Z,22.23
2018-08-23T07:37:41.770Z,22.25
2018-08-23T07:40:12.778Z,22.32
2018-08-23T07:42:43.912Z,22.42
2018-08-23T07:45:14.132Z,22.51
2018-08-23T07:47:58.331Z,22.59
2018-08-23T07:50:28.357Z,22.70
2018-08-23T07:52:58.457Z,22.77
2018-08-23T07:55:28.495Z,22.84
2018-08-23T07:57:58.525Z,22.89
2018-08-23T08:00:44.097Z,22.99
2018-08-23T08:03:15.267Z,23.04
2018-08-23T08:05:46.416Z,23.13
2018-08-23T08:08:16.498Z,23.18
2018-08-23T08:10:47.085Z,23.24
2018-08-23T08:13:17.169Z,23.32
2018-08-23T08:15:47.171Z,23.43
2018-08-23T08:18:21.070Z,23.55
2018-08-23T08:20:57.157Z,23.62
2018-08-23T08:23:27.340Z,23.72
2018-08-23T08:25:57.411Z,23.75
2018-08-23T08:28:27.454Z,23.81
2018-08-23T08:31:00.569Z,23.88
2018-08-23T08:33:35.653Z,23.98
2018-08-23T08:36:06.515Z,24.03
2018-08-23T08:38:37.105Z,24.11
2018-08-23T08:41:07.223Z,24.16
2018-08-23T08:43:37.246Z,24.22
2018-08-23T08:46:07.360Z,24.22
2018-08-23T08:48:37.386Z,24.48
2018-08-23T08:51:31.969Z,24.52
2018-08-23T08:54:03.333Z,24.61
2018-08-23T08:56:38.372Z,24.73
2018-08-23T08:59:08.331Z,24.86
2018-08-23T09:01:38.399Z,24.97
2018-08-23T09:04:08.568Z,25.02
2018-08-23T09:06:45.450Z,25.09
2018-08-23T09:09:39.611Z,25.12
2018-08-23T09:12:11.075Z,25.19
2018-08-23T09:14:42.234Z,25.29
2018-08-23T09:17:28.038Z,25.33
2018-08-23T09:20:01.049Z,25.34
2018-08-23T09:22:36.073Z,25.40
2018-08-23T09:25:07.959Z,25.50
2018-08-23T09:27:38.840Z,25.50
2018-08-23T09:30:14.940Z,25.52
2018-08-23T09:32:45.013Z,25.56
2018-08-23T09:35:15.179Z,25.64
2018-08-23T09:37:45.313Z,25.73
2018-08-23T09:40:15.441Z,25.85
2018-08-23T09:42:45.228Z,25.99
2018-08-23T09:45:17.371Z,26.13
2018-08-23T09:47:48.476Z,26.27
2018-08-23T09:50:18.559Z,26.37
2018-08-23T09:52:49.850Z,26.54
2018-08-23T09:55:21.082Z,26.75
2018-08-23T09:57:51.183Z,26.95
2018-08-23T10:00:30.444Z,27.16
2018-08-23T10:03:05.558Z,27.25
2018-08-23T10:05:44.706Z,27.28
2018-08-23T10:08:19.679Z,27.26
2018-08-23T10:10:54.605Z,27.28
2018-08-23T10:13:29.616Z,27.33
2018-08-23T10:16:04.662Z,27.39
2018-08-23T10:18:39.596Z,27.47
2018-08-23T10:21:09.890Z,27.62
2018-08-23T10:23:40.039Z,27.68
2018-08-23T10:26:26.889Z,27.75
2018-08-23T10:28:57.162Z,27.82
2018-08-23T10:31:27.307Z,27.91
2018-08-23T10:33:57.397Z,27.97
2018-08-23T10:36:27.465Z,27.98
2018-08-23T10:38:57.485Z,28.02
2018-08-23T10:41:27.542Z,28.09
2018-08-23T10:43:56.699Z,28.20
2018-08-23T10:46:26.799Z,28.30
2018-08-23T10:48:56.882Z,28.30
2018-08-23T10:51:26.928Z,28.29
2018-08-23T10:53:56.986Z,28.30
2018-08-23T10:56:28.300Z,28.39
2018-08-23T10:58:58.423Z,28.45
2018-08-23T11:01:28.446Z,28.53
2018-08-23T11:04:02.462Z,28.60
2018-08-23T11:06:32.638Z,28.69
2018-08-23T11:09:07.413Z,28.78
2018-08-23T11:11:38.295Z,28.89
2018-08-23T11:14:13.285Z,28.91
2018-08-23T11:16:48.328Z,28.91
2018-08-23T11:19:23.404Z,28.99
2018-08-23T11:21:53.222Z,29.06
2018-08-23T11:24:23.296Z,29.23
2018-08-23T11:26:53.372Z,29.44
2018-08-23T11:29:23.610Z,29.52
2018-08-23T11:31:53.662Z,29.54
2018-08-23T11:34:23.746Z,29.55
2018-08-23T11:36:53.863Z,29.51
2018-08-23T11:39:23.932Z,29.48
2018-08-23T11:41:54.183Z,29.52
2018-08-23T11:44:24.280Z,29.55
2018-08-23T11:46:54.463Z,29.56
2018-08-23T11:49:24.520Z,29.63
2018-08-23T11:51:54.689Z,29.72
2018-08-23T11:54:24.820Z,29.85
2018-08-23T11:56:54.880Z,30.00
2018-08-23T11:59:24.850Z,30.13
2018-08-23T12:01:55.021Z,30.19
2018-08-23T12:04:24.972Z,30.19
2018-08-23T12:06:58.131Z,30.25
2018-08-23T12:09:33.833Z,30.32
2018-08-23T12:12:05.019Z,30.31
2018-08-23T12:14:35.058Z,30.38
2018-08-23T12:17:04.988Z,30.51
2018-08-23T12:19:35.043Z,30.63
2018-08-23T12:22:05.359Z,30.78
2018-08-23T12:24:35.397Z,30.92
2018-08-23T12:27:05.593Z,30.99
2018-08-23T12:29:35.668Z,31.12
2018-08-23T12:32:05.913Z,31.15
2018-08-23T12:34:36.899Z,31.11
2018-08-23T12:37:11.814Z,30.84
2018-08-23T12:39:47.071Z,30.57
2018-08-23T12:42:21.901Z,30.53
2018-08-23T12:44:53.993Z,30.50
2018-08-23T12:47:23.990Z,30.35
2018-08-23T12:49:58.009Z,30.21
2018-08-23T12:52:28.140Z,30.09
2018-08-23T12:54:58.196Z,29.98
2018-08-23T12:57:28.659Z,29.84
2018-08-23T12:59:58.862Z,29.50
2018-08-23T13:02:29.409Z,29.59
2018-08-23T13:04:59.489Z,29.74
2018-08-23T13:07:30.623Z,29.81
2018-08-23T13:10:00.670Z,29.74
2018-08-23T13:12:30.765Z,29.65
2018-08-23T13:15:00.841Z,29.57
2018-08-23T13:17:31.035Z,29.46
2018-08-23T13:20:01.160Z,29.66
2018-08-23T13:22:36.321Z,29.89
2018-08-23T13:25:07.815Z,30.13
2018-08-23T13:27:37.907Z,30.25
2018-08-23T13:30:07.961Z,30.33
2018-08-23T13:32:38.052Z,30.44
2018-08-23T13:35:08.422Z,30.53
2018-08-23T13:37:38.554Z,30.54
2018-08-23T13:40:12.750Z,30.66
2018-08-23T13:42:42.923Z,30.74
2018-08-23T13:45:12.894Z,30.76
2018-08-23T13:47:43.013Z,30.78
2018-08-23T13:50:13.090Z,30.84
2018-08-23T13:52:43.253Z,30.92
2018-08-23T13:55:13.197Z,30.99
2018-08-23T13:57:43.225Z,31.14
2018-08-23T14:00:18.239Z,31.31
2018-08-23T14:02:48.062Z,31.54
2018-08-23T14:05:18.124Z,31.66
2018-08-23T14:07:48.254Z,31.64
2018-08-23T14:10:18.157Z,31.49
2018-08-23T14:12:48.320Z,31.22
2018-08-23T14:15:23.948Z,31.19
2018-08-23T14:17:54.077Z,31.27
2018-08-23T14:20:24.255Z,31.48
2018-08-23T14:22:54.337Z,31.71
2018-08-23T14:25:24.348Z,31.84
2018-08-23T14:27:54.468Z,32.01
2018-08-23T14:30:24.586Z,32.14
2018-08-23T14:32:54.899Z,32.17
2018-08-23T14:35:24.938Z,32.22
2018-08-23T14:37:54.980Z,32.26
2018-08-23T14:40:25.179Z,32.33
2018-08-23T14:42:55.245Z,32.35
2018-08-23T14:45:30.256Z,32.45
2018-08-23T14:48:05.276Z,32.49
2018-08-23T14:50:36.084Z,32.18
2018-08-23T14:53:06.949Z,32.14
2018-08-23T14:55:41.942Z,31.95
2018-08-23T14:58:12.902Z,31.52
2018-08-23T15:00:43.054Z,31.18
2018-08-23T15:03:13.180Z,30.86
2018-08-23T15:05:43.213Z,30.47
2018-08-23T15:08:13.175Z,30.14
2018-08-23T15:10:43.258Z,30.04
2018-08-23T15:13:13.374Z,30.26
2018-08-23T15:15:48.277Z,30.50
2018-08-23T15:18:20.204Z,30.80
2018-08-23T15:20:50.975Z,30.97
2018-08-23T15:23:21.136Z,31.05
2018-08-23T15:25:51.181Z,30.83
2018-08-23T15:28:21.087Z,30.65
2018-08-23T15:30:50.987Z,30.52
2018-08-23T15:33:20.946Z,30.14
2018-08-23T15:35:50.855Z,29.46
2018-08-23T15:38:20.897Z,29.21
2018-08-23T15:40:50.854Z,28.92
2018-08-23T15:43:21.202Z,28.49
2018-08-23T15:45:51.042Z,28.31
2018-08-23T15:48:21.020Z,28.09
2018-08-23T15:50:51.039Z,28.04
2018-08-23T15:53:21.136Z,28.13
2018-08-23T15:55:51.067Z,28.19
2018-08-23T15:58:21.015Z,28.13
2018-08-23T16:00:51.071Z,28.10
2018-08-23T16:03:21.176Z,28.06
2018-08-23T16:05:51.166Z,28.04
2018-08-23T16:08:21.198Z,27.99
2018-08-23T16:10:51.229Z,27.95
2018-08-23T16:13:21.275Z,27.87
2018-08-23T16:15:55.318Z,27.77
2018-08-23T16:18:30.442Z,27.70
2018-08-23T16:21:01.569Z,27.59
2018-08-23T16:23:31.604Z,27.43
2018-08-23T16:26:01.523Z,27.28
2018-08-23T16:28:31.567Z,26.86
2018-08-23T16:31:01.564Z,26.69
2018-08-23T16:33:31.618Z,26.58
2018-08-23T16:36:01.721Z,26.51
2018-08-23T16:38:31.757Z,26.49
2018-08-23T16:41:01.743Z,26.43
2018-08-23T16:43:31.809Z,26.37
2018-08-23T16:46:01.866Z,26.22
2018-08-23T16:48:31.937Z,26.03
2018-08-23T16:51:01.940Z,25.86
2018-08-23T16:53:32.042Z,25.70
2018-08-23T16:56:02.120Z,25.57
2018-08-23T16:58:32.341Z,25.50
2018-08-23T17:01:02.257Z,25.38
2018-08-23T17:03:32.246Z,25.19
2018-08-23T17:06:02.332Z,25.22
2018-08-23T17:08:32.302Z,25.31
2018-08-23T17:11:02.275Z,25.38
2018-08-23T17:13:37.439Z,25.36
2018-08-23T17:16:12.913Z,25.34
2018-08-23T17:18:43.774Z,25.30
2018-08-23T17:21:13.746Z,25.19
2018-08-23T17:23:43.750Z,25.13
2018-08-23T17:26:13.787Z,24.97
2018-08-23T17:28:43.893Z,24.70
2018-08-23T17:31:13.893Z,24.63
2018-08-23T17:33:43.947Z,24.62
2018-08-23T17:36:13.974Z,24.56
2018-08-23T17:38:44.091Z,24.47
2018-08-23T17:41:14.180Z,24.48
2018-08-23T17:43:44.147Z,24.56
2018-08-23T17:46:14.299Z,24.62
2018-08-23T17:48:44.365Z,24.61
2018-08-23T17:51:14.451Z,24.49
2018-08-23T17:53:44.510Z,24.38
2018-08-23T17:56:14.549Z,24.36
2018-08-23T17:58:44.721Z,24.34
2018-08-23T18:01:14.742Z,24.30
2018-08-23T18:03:44.739Z,24.25
2018-08-23T18:06:15.058Z,24.20
2018-08-23T18:08:46.019Z,24.19
2018-08-23T18:11:16.056Z,24.20
2018-08-23T18:13:46.101Z,24.19
2018-08-23T18:16:21.058Z,24.19
2018-08-23T18:18:51.115Z,24.18
2018-08-23T18:21:20.813Z,24.15
2018-08-23T18:23:50.943Z,24.07
2018-08-23T18:26:20.921Z,24.03
2018-08-23T18:28:51.017Z,23.98
2018-08-23T18:31:20.979Z,23.91
2018-08-23T18:33:51.074Z,23.88
2018-08-23T18:36:21.013Z,23.85
2018-08-23T18:38:51.034Z,23.78
2018-08-23T18:41:21.072Z,23.66
2018-08-23T18:43:51.134Z,23.54
2018-08-23T18:46:21.259Z,23.45
2018-08-23T18:48:51.525Z,23.37
2018-08-23T18:51:21.650Z,23.29
2018-08-23T18:53:51.802Z,23.15
2018-08-23T18:56:21.903Z,23.09
2018-08-23T18:58:52.043Z,23.03
2018-08-23T19:01:21.975Z,22.99
2018-08-23T19:03:52.324Z,22.83
2018-08-23T19:06:26.337Z,22.74
2018-08-23T19:08:56.360Z,22.69
2018-08-23T19:11:26.408Z,22.65
2018-08-23T19:13:56.405Z,22.47
2018-08-23T19:16:31.509Z,22.39
2018-08-23T19:19:01.896Z,22.23
2018-08-23T19:21:31.817Z,22.14
2018-08-23T19:24:01.917Z,22.02
2018-08-23T19:26:31.923Z,21.97
2018-08-23T19:29:01.862Z,21.92
2018-08-23T19:31:32.259Z,21.78
2018-08-23T19:34:02.257Z,21.76
2018-08-23T19:36:32.335Z,21.76
2018-08-23T19:39:03.454Z,21.77
2018-08-23T19:41:33.469Z,21.66
2018-08-23T19:44:03.509Z,21.58
2018-08-23T19:46:38.366Z,21.56
2018-08-23T19:49:13.305Z,21.49
2018-08-23T19:51:43.338Z,21.41
2018-08-23T19:54:13.401Z,21.41
2018-08-23T19:56:43.508Z,21.44
2018-08-23T19:59:13.534Z,21.45
2018-08-23T20:01:43.590Z,21.47
2018-08-23T20:04:15.370Z,21.49
2018-08-23T20:06:45.576Z,21.50
2018-08-23T20:09:15.605Z,21.55
2018-08-23T20:11:45.678Z,21.59
2018-08-23T20:14:15.704Z,21.60
2018-08-23T20:16:45.734Z,21.58
2018-08-23T20:19:15.722Z,21.57
2018-08-23T20:21:45.877Z,21.52
2018-08-23T20:24:15.968Z,21.51
2018-08-23T20:26:46.919Z,21.50
2018-08-23T20:29:16.956Z,21.53
2018-08-23T20:31:47.039Z,21.55
2018-08-23T20:34:17.042Z,21.54
2018-08-23T20:36:47.093Z,21.51
2018-08-23T20:39:17.254Z,21.45
2018-08-23T20:41:48.045Z,21.43
2018-08-23T20:44:17.916Z,21.35
2018-08-23T20:46:47.879Z,21.36
2018-08-23T20:49:17.830Z,21.35
2018-08-23T20:51:47.698Z,21.33
2018-08-23T20:54:17.632Z,21.30
2018-08-23T20:56:47.547Z,21.25
2018-08-23T20:59:17.522Z,21.25
2018-08-23T21:01:47.481Z,21.23
2018-08-23T21:04:17.584Z,21.19
2018-08-23T21:06:47.591Z,21.20
2018-08-23T21:09:17.521Z,21.19
2018-08-23T21:11:47.580Z,21.20
2018-08-23T21:14:17.702Z,21.13
2018-08-23T21:16:47.797Z,21.15
2018-08-23T21:19:17.553Z,21.11
2018-08-23T21:21:47.550Z,21.10
2018-08-23T21:24:17.510Z,21.01
2018-08-23T21:26:47.570Z,20.96
2018-08-23T21:29:17.567Z,20.96
2018-08-23T21:31:47.466Z,20.95
2018-08-23T21:34:17.409Z,20.87
2018-08-23T21:36:47.443Z,20.82
2018-08-23T21:39:17.700Z,20.81
2018-08-23T21:41:47.758Z,20.81
2018-08-23T21:44:17.812Z,20.85
2018-08-23T21:46:47.588Z,20.89
2018-08-23T21:49:17.742Z,20.89
2018-08-23T21:51:47.646Z,20.89
2018-08-23T21:54:17.749Z,20.86
2018-08-23T21:56:47.775Z,20.81
2018-08-23T21:59:17.875Z,20.82
2018-08-23T22:01:47.935Z,20.84
2018-08-23T22:04:17.934Z,20.84
2018-08-23T22:06:47.950Z,20.88
2018-08-23T22:09:18.043Z,20.90
2018-08-23T22:11:48.048Z,20.95
2018-08-23T22:14:18.179Z,20.97
2018-08-23T22:16:48.197Z,20.98
2018-08-23T22:19:18.312Z,20.98
2018-08-23T22:21:48.285Z,20.98
2018-08-23T22:24:18.376Z,20.96
2018-08-23T22:26:48.444Z,20.95
2018-08-23T22:29:18.532Z,20.95
2018-08-23T22:31:48.508Z,20.94
2018-08-23T22:34:19.325Z,20.91
2018-08-23T22:36:49.394Z,20.89
2018-08-23T22:39:19.461Z,20.87
2018-08-23T22:41:49.449Z,20.85
2018-08-23T22:44:19.568Z,20.82
2018-08-23T22:46:49.500Z,20.79
2018-08-23T22:49:19.625Z,20.77
2018-08-23T22:51:49.523Z,20.74
2018-08-23T22:54:19.596Z,20.70
2018-08-23T22:56:49.490Z,20.71
2018-08-23T22:59:19.413Z,20.70
2018-08-23T23:01:49.398Z,20.69
2018-08-23T23:04:24.320Z,20.70
2018-08-23T23:06:54.378Z,20.69
2018-08-23T23:09:24.396Z,20.65
2018-08-23T23:11:54.475Z,20.61
2018-08-23T23:14:24.530Z,20.59
2018-08-23T23:16:55.258Z,20.57
2018-08-23T23:19:26.262Z,20.58
2018-08-23T23:21:56.246Z,20.55
2018-08-23T23:24:31.343Z,20.52
2018-08-23T23:27:01.283Z,20.49
2018-08-23T23:29:31.337Z,20.46
2018-08-23T23:32:01.365Z,20.43
2018-08-23T23:34:31.378Z,20.39
2018-08-23T23:37:01.251Z,20.36
2018-08-23T23:39:31.312Z,20.32
2018-08-23T23:42:01.348Z,20.30
2018-08-23T23:44:31.481Z,20.28
2018-08-23T23:47:01.495Z,20.26
2018-08-23T23:49:31.635Z,20.25
2018-08-23T23:52:01.676Z,20.19
2018-08-23T23:54:31.834Z,20.14
2018-08-23T23:57:01.892Z,20.05
2018-08-23T23:59:32.001Z,19.98
